sensor_id;sensor_type;location;lat;lon;timestamp;temperature;humidity
15969;DHT22;8085;53.472;9.794;2023-08-17T00:01:32;17.20;90.80
15969;DHT22;8085;53.472;9.794;2023-08-17T00:03:59;17.20;90.80
15969;DHT22;8085;53.472;9.794;2023-08-17T00:06:26;17.20;90.70
15969;DHT22;8085;53.472;9.794;2023-08-17T00:08:53;17.30;90.80
15969;DHT22;8085;53.472;9.794;2023-08-17T00:11:20;17.40;90.90
15969;DHT22;8085;53.472;9.794;2023-08-17T00:13:47;17.30;90.90
15969;DHT22;8085;53.472;9.794;2023-08-17T00:16:15;17.30;90.90
15969;DHT22;8085;53.472;9.794;2023-08-17T00:18:42;17.30;91.00
15969;DHT22;8085;53.472;9.794;2023-08-17T00:21:09;17.30;91.00
15969;DHT22;8085;53.472;9.794;2023-08-17T00:23:36;17.30;91.00
15969;DHT22;8085;53.472;9.794;2023-08-17T00:26:03;17.40;91.20
15969;DHT22;8085;53.472;9.794;2023-08-17T00:28:30;17.30;91.20
15969;DHT22;8085;53.472;9.794;2023-08-17T00:30:57;17.30;91.30
15969;DHT22;8085;53.472;9.794;2023-08-17T00:33:25;17.30;91.40
15969;DHT22;8085;53.472;9.794;2023-08-17T00:35:52;17.30;91.60
15969;DHT22;8085;53.472;9.794;2023-08-17T00:38:19;17.20;91.70
15969;DHT22;8085;53.472;9.794;2023-08-17T00:40:46;17.20;91.90
15969;DHT22;8085;53.472;9.794;2023-08-17T00:43:13;17.20;92.20
15969;DHT22;8085;53.472;9.794;2023-08-17T00:45:40;17.20;92.50
15969;DHT22;8085;53.472;9.794;2023-08-17T00:48:08;17.30;92.70
15969;DHT22;8085;53.472;9.794;2023-08-17T00:50:36;17.30;92.80
15969;DHT22;8085;53.472;9.794;2023-08-17T00:53:04;17.30;92.60
15969;DHT22;8085;53.472;9.794;2023-08-17T00:55:32;17.20;92.60
15969;DHT22;8085;53.472;9.794;2023-08-17T00:57:59;17.30;92.40
15969;DHT22;8085;53.472;9.794;2023-08-17T01:00:26;17.30;92.40
15969;DHT22;8085;53.472;9.794;2023-08-17T01:02:54;17.30;92.40
15969;DHT22;8085;53.472;9.794;2023-08-17T01:05:21;17.30;92.40
15969;DHT22;8085;53.472;9.794;2023-08-17T01:07:50;17.30;92.50
15969;DHT22;8085;53.472;9.794;2023-08-17T01:10:17;17.40;92.60
15969;DHT22;8085;53.472;9.794;2023-08-17T01:12:57;17.40;92.60
15969;DHT22;8085;53.472;9.794;2023-08-17T01:15:27;17.30;92.60
15969;DHT22;8085;53.472;9.794;2023-08-17T01:18:00;17.40;92.60
15969;DHT22;8085;53.472;9.794;2023-08-17T01:20:27;17.30;92.60
15969;DHT22;8085;53.472;9.794;2023-08-17T01:23:02;17.40;92.70
15969;DHT22;8085;53.472;9.794;2023-08-17T01:25:31;17.30;92.70
15969;DHT22;8085;53.472;9.794;2023-08-17T01:28:02;17.40;92.70
15969;DHT22;8085;53.472;9.794;2023-08-17T01:30:31;17.40;92.80
15969;DHT22;8085;53.472;9.794;2023-08-17T01:33:05;17.40;92.90
15969;DHT22;8085;53.472;9.794;2023-08-17T01:35:38;17.40;92.90
15969;DHT22;8085;53.472;9.794;2023-08-17T01:38:12;17.40;92.70
15969;DHT22;8085;53.472;9.794;2023-08-17T01:40:41;17.40;92.50
15969;DHT22;8085;53.472;9.794;2023-08-17T01:43:09;17.40;92.40
15969;DHT22;8085;53.472;9.794;2023-08-17T01:45:36;17.50;92.40
15969;DHT22;8085;53.472;9.794;2023-08-17T01:48:04;17.40;92.70
15969;DHT22;8085;53.472;9.794;2023-08-17T01:50:31;17.40;92.40
15969;DHT22;8085;53.472;9.794;2023-08-17T01:52:58;17.40;92.20
15969;DHT22;8085;53.472;9.794;2023-08-17T01:55:26;17.40;92.50
15969;DHT22;8085;53.472;9.794;2023-08-17T01:57:53;17.40;91.90
15969;DHT22;8085;53.472;9.794;2023-08-17T02:00:20;17.50;91.80
15969;DHT22;8085;53.472;9.794;2023-08-17T02:02:47;17.40;91.70
15969;DHT22;8085;53.472;9.794;2023-08-17T02:05:14;17.40;91.80
15969;DHT22;8085;53.472;9.794;2023-08-17T02:07:41;17.40;91.80
15969;DHT22;8085;53.472;9.794;2023-08-17T02:10:09;17.40;91.80
15969;DHT22;8085;53.472;9.794;2023-08-17T02:12:37;17.40;91.70
15969;DHT22;8085;53.472;9.794;2023-08-17T02:15:04;17.40;91.40
15969;DHT22;8085;53.472;9.794;2023-08-17T02:17:32;17.40;91.40
15969;DHT22;8085;53.472;9.794;2023-08-17T02:20:30;17.40;91.30
15969;DHT22;8085;53.472;9.794;2023-08-17T02:23:05;17.40;91.30
15969;DHT22;8085;53.472;9.794;2023-08-17T02:25:38;17.40;91.00
15969;DHT22;8085;53.472;9.794;2023-08-17T02:28:10;17.30;91.10
15969;DHT22;8085;53.472;9.794;2023-08-17T02:30:54;17.30;91.20
15969;DHT22;8085;53.472;9.794;2023-08-17T02:33:47;17.30;91.20
15969;DHT22;8085;53.472;9.794;2023-08-17T02:36:16;17.30;91.10
15969;DHT22;8085;53.472;9.794;2023-08-17T02:38:43;17.30;91.00
15969;DHT22;8085;53.472;9.794;2023-08-17T02:41:10;17.30;91.20
15969;DHT22;8085;53.472;9.794;2023-08-17T02:44:11;17.30;91.30
15969;DHT22;8085;53.472;9.794;2023-08-17T02:46:54;17.20;91.50
15969;DHT22;8085;53.472;9.794;2023-08-17T02:49:30;17.20;91.50
15969;DHT22;8085;53.472;9.794;2023-08-17T02:52:01;17.20;91.70
15969;DHT22;8085;53.472;9.794;2023-08-17T02:54:33;17.20;91.90
15969;DHT22;8085;53.472;9.794;2023-08-17T02:57:06;17.20;91.90
15969;DHT22;8085;53.472;9.794;2023-08-17T02:59:38;17.10;92.00
15969;DHT22;8085;53.472;9.794;2023-08-17T03:02:22;17.10;92.00
15969;DHT22;8085;53.472;9.794;2023-08-17T03:05:04;17.10;92.10
15969;DHT22;8085;53.472;9.794;2023-08-17T03:07:31;17.10;92.20
15969;DHT22;8085;53.472;9.794;2023-08-17T03:10:12;17.00;92.30
15969;DHT22;8085;53.472;9.794;2023-08-17T03:13:14;17.10;92.50
15969;DHT22;8085;53.472;9.794;2023-08-17T03:15:45;17.00;92.70
15969;DHT22;8085;53.472;9.794;2023-08-17T03:18:12;17.00;92.60
15969;DHT22;8085;53.472;9.794;2023-08-17T03:20:39;17.00;92.90
15969;DHT22;8085;53.472;9.794;2023-08-17T03:23:06;17.00;92.90
15969;DHT22;8085;53.472;9.794;2023-08-17T03:25:41;17.00;93.00
15969;DHT22;8085;53.472;9.794;2023-08-17T03:28:19;17.00;93.20
15969;DHT22;8085;53.472;9.794;2023-08-17T03:31:16;17.00;93.30
15969;DHT22;8085;53.472;9.794;2023-08-17T03:33:45;17.00;93.40
15969;DHT22;8085;53.472;9.794;2023-08-17T03:36:20;17.00;93.50
15969;DHT22;8085;53.472;9.794;2023-08-17T03:39:05;17.00;93.70
15969;DHT22;8085;53.472;9.794;2023-08-17T03:41:35;17.00;93.80
15969;DHT22;8085;53.472;9.794;2023-08-17T03:44:03;17.00;93.90
15969;DHT22;8085;53.472;9.794;2023-08-17T03:46:33;17.00;94.00
15969;DHT22;8085;53.472;9.794;2023-08-17T03:49:00;17.00;93.80
15969;DHT22;8085;53.472;9.794;2023-08-17T03:51:27;17.00;94.00
15969;DHT22;8085;53.472;9.794;2023-08-17T03:53:54;17.00;94.00
15969;DHT22;8085;53.472;9.794;2023-08-17T03:56:21;17.00;94.00
15969;DHT22;8085;53.472;9.794;2023-08-17T03:58:54;17.00;94.10
15969;DHT22;8085;53.472;9.794;2023-08-17T04:01:46;17.00;94.30
15969;DHT22;8085;53.472;9.794;2023-08-17T04:04:25;17.00;94.30
15969;DHT22;8085;53.472;9.794;2023-08-17T04:07:01;17.00;94.30
15969;DHT22;8085;53.472;9.794;2023-08-17T04:09:37;17.00;94.40
15969;DHT22;8085;53.472;9.794;2023-08-17T04:12:23;17.10;94.60
15969;DHT22;8085;53.472;9.794;2023-08-17T04:15:16;17.00;94.70
15969;DHT22;8085;53.472;9.794;2023-08-17T04:18:11;17.00;94.60
15969;DHT22;8085;53.472;9.794;2023-08-17T04:20:54;17.00;94.70
15969;DHT22;8085;53.472;9.794;2023-08-17T04:23:21;17.00;94.90
15969;DHT22;8085;53.472;9.794;2023-08-17T04:25:48;17.00;94.90
15969;DHT22;8085;53.472;9.794;2023-08-17T04:28:18;17.00;95.00
15969;DHT22;8085;53.472;9.794;2023-08-17T04:30:53;17.00;95.00
15969;DHT22;8085;53.472;9.794;2023-08-17T04:33:21;17.00;95.00
15969;DHT22;8085;53.472;9.794;2023-08-17T04:35:48;17.00;95.00
15969;DHT22;8085;53.472;9.794;2023-08-17T04:38:15;17.00;95.10
15969;DHT22;8085;53.472;9.794;2023-08-17T04:40:44;17.00;95.10
15969;DHT22;8085;53.472;9.794;2023-08-17T04:43:14;17.00;95.10
15969;DHT22;8085;53.472;9.794;2023-08-17T04:45:41;17.00;95.30
15969;DHT22;8085;53.472;9.794;2023-08-17T04:48:13;17.00;95.40
15969;DHT22;8085;53.472;9.794;2023-08-17T04:50:42;17.00;95.60
15969;DHT22;8085;53.472;9.794;2023-08-17T04:53:10;17.00;95.70
15969;DHT22;8085;53.472;9.794;2023-08-17T04:55:49;17.00;95.90
15969;DHT22;8085;53.472;9.794;2023-08-17T04:58:16;17.10;96.30
15969;DHT22;8085;53.472;9.794;2023-08-17T05:00:43;17.10;96.50
15969;DHT22;8085;53.472;9.794;2023-08-17T05:03:10;17.00;96.60
15969;DHT22;8085;53.472;9.794;2023-08-17T05:05:37;17.00;96.80
15969;DHT22;8085;53.472;9.794;2023-08-17T05:08:06;17.00;97.10
15969;DHT22;8085;53.472;9.794;2023-08-17T05:10:33;17.00;97.20
15969;DHT22;8085;53.472;9.794;2023-08-17T05:13:00;17.00;97.30
15969;DHT22;8085;53.472;9.794;2023-08-17T05:15:27;17.00;97.30
15969;DHT22;8085;53.472;9.794;2023-08-17T05:17:56;17.00;97.50
15969;DHT22;8085;53.472;9.794;2023-08-17T05:20:23;17.10;97.60
15969;DHT22;8085;53.472;9.794;2023-08-17T05:22:53;17.00;97.70
15969;DHT22;8085;53.472;9.794;2023-08-17T05:25:21;17.00;97.90
15969;DHT22;8085;53.472;9.794;2023-08-17T05:27:48;17.00;98.00
15969;DHT22;8085;53.472;9.794;2023-08-17T05:30:16;17.00;98.10
15969;DHT22;8085;53.472;9.794;2023-08-17T05:32:48;17.00;98.30
15969;DHT22;8085;53.472;9.794;2023-08-17T05:35:20;17.00;98.30
15969;DHT22;8085;53.472;9.794;2023-08-17T05:37:50;17.00;98.70
15969;DHT22;8085;53.472;9.794;2023-08-17T05:40:29;17.10;98.90
15969;DHT22;8085;53.472;9.794;2023-08-17T05:42:56;17.10;99.30
15969;DHT22;8085;53.472;9.794;2023-08-17T05:45:29;17.00;99.70
15969;DHT22;8085;53.472;9.794;2023-08-17T05:47:57;16.90;99.90
15969;DHT22;8085;53.472;9.794;2023-08-17T05:50:24;16.80;99.90
15969;DHT22;8085;53.472;9.794;2023-08-17T05:52:51;16.70;99.90
15969;DHT22;8085;53.472;9.794;2023-08-17T05:55:18;16.60;99.90
15969;DHT22;8085;53.472;9.794;2023-08-17T05:57:47;16.50;99.90
15969;DHT22;8085;53.472;9.794;2023-08-17T06:00:14;16.40;99.90
15969;DHT22;8085;53.472;9.794;2023-08-17T06:02:41;16.30;99.90
15969;DHT22;8085;53.472;9.794;2023-08-17T06:05:09;16.30;99.90
15969;DHT22;8085;53.472;9.794;2023-08-17T06:07:36;16.20;99.90
15969;DHT22;8085;53.472;9.794;2023-08-17T06:10:04;16.20;99.90
15969;DHT22;8085;53.472;9.794;2023-08-17T06:12:31;16.10;99.90
15969;DHT22;8085;53.472;9.794;2023-08-17T06:15:02;16.10;99.90
15969;DHT22;8085;53.472;9.794;2023-08-17T06:17:29;16.10;99.90
15969;DHT22;8085;53.472;9.794;2023-08-17T06:19:56;16.00;99.90
15969;DHT22;8085;53.472;9.794;2023-08-17T06:22:23;16.00;99.90
15969;DHT22;8085;53.472;9.794;2023-08-17T06:24:51;16.00;99.90
15969;DHT22;8085;53.472;9.794;2023-08-17T06:27:19;16.00;99.90
15969;DHT22;8085;53.472;9.794;2023-08-17T06:29:46;16.00;99.90
15969;DHT22;8085;53.472;9.794;2023-08-17T06:32:14;16.00;99.90
15969;DHT22;8085;53.472;9.794;2023-08-17T06:34:41;16.00;99.90
15969;DHT22;8085;53.472;9.794;2023-08-17T06:37:08;16.00;99.90
15969;DHT22;8085;53.472;9.794;2023-08-17T06:39:35;16.00;99.90
15969;DHT22;8085;53.472;9.794;2023-08-17T06:42:02;16.00;99.90
15969;DHT22;8085;53.472;9.794;2023-08-17T06:44:29;16.00;99.90
15969;DHT22;8085;53.472;9.794;2023-08-17T06:46:56;16.00;99.90
15969;DHT22;8085;53.472;9.794;2023-08-17T06:49:25;16.00;99.90
15969;DHT22;8085;53.472;9.794;2023-08-17T06:51:53;16.00;99.90
15969;DHT22;8085;53.472;9.794;2023-08-17T06:54:20;16.00;99.90
15969;DHT22;8085;53.472;9.794;2023-08-17T06:56:46;16.10;99.90
15969;DHT22;8085;53.472;9.794;2023-08-17T06:59:16;16.10;99.90
15969;DHT22;8085;53.472;9.794;2023-08-17T07:01:46;16.10;99.90
15969;DHT22;8085;53.472;9.794;2023-08-17T07:04:13;16.10;99.90
15969;DHT22;8085;53.472;9.794;2023-08-17T07:06:41;16.10;99.90
15969;DHT22;8085;53.472;9.794;2023-08-17T07:09:09;16.00;99.90
15969;DHT22;8085;53.472;9.794;2023-08-17T07:11:38;16.10;99.90
15969;DHT22;8085;53.472;9.794;2023-08-17T07:14:05;16.10;99.90
15969;DHT22;8085;53.472;9.794;2023-08-17T07:16:32;16.00;99.90
15969;DHT22;8085;53.472;9.794;2023-08-17T07:18:59;16.00;99.90
15969;DHT22;8085;53.472;9.794;2023-08-17T07:21:26;15.80;99.90
15969;DHT22;8085;53.472;9.794;2023-08-17T07:23:55;15.90;99.90
15969;DHT22;8085;53.472;9.794;2023-08-17T07:26:22;15.80;99.90
15969;DHT22;8085;53.472;9.794;2023-08-17T07:28:49;15.80;99.90
15969;DHT22;8085;53.472;9.794;2023-08-17T07:31:16;15.80;99.90
15969;DHT22;8085;53.472;9.794;2023-08-17T07:33:43;15.80;99.90
15969;DHT22;8085;53.472;9.794;2023-08-17T07:36:10;15.80;99.90
15969;DHT22;8085;53.472;9.794;2023-08-17T07:38:37;15.70;99.90
15969;DHT22;8085;53.472;9.794;2023-08-17T07:41:05;15.70;99.90
15969;DHT22;8085;53.472;9.794;2023-08-17T07:43:32;15.70;99.90
15969;DHT22;8085;53.472;9.794;2023-08-17T07:45:59;15.70;99.90
15969;DHT22;8085;53.472;9.794;2023-08-17T07:48:26;15.70;99.90
15969;DHT22;8085;53.472;9.794;2023-08-17T07:50:53;15.60;99.90
15969;DHT22;8085;53.472;9.794;2023-08-17T07:53:20;15.60;99.90
15969;DHT22;8085;53.472;9.794;2023-08-17T07:55:47;15.60;99.90
15969;DHT22;8085;53.472;9.794;2023-08-17T07:58:15;15.60;99.90
15969;DHT22;8085;53.472;9.794;2023-08-17T08:00:42;15.50;99.90
15969;DHT22;8085;53.472;9.794;2023-08-17T08:03:09;15.50;99.90
15969;DHT22;8085;53.472;9.794;2023-08-17T08:05:36;15.50;99.90
15969;DHT22;8085;53.472;9.794;2023-08-17T08:08:03;15.40;99.90
15969;DHT22;8085;53.472;9.794;2023-08-17T08:10:30;15.40;99.90
15969;DHT22;8085;53.472;9.794;2023-08-17T08:12:57;15.40;99.90
15969;DHT22;8085;53.472;9.794;2023-08-17T08:15:25;15.40;99.90
15969;DHT22;8085;53.472;9.794;2023-08-17T08:17:52;15.40;99.90
15969;DHT22;8085;53.472;9.794;2023-08-17T08:20:20;15.30;99.90
15969;DHT22;8085;53.472;9.794;2023-08-17T08:22:46;15.30;99.90
15969;DHT22;8085;53.472;9.794;2023-08-17T08:25:13;15.40;99.90
15969;DHT22;8085;53.472;9.794;2023-08-17T08:27:40;15.40;99.90
15969;DHT22;8085;53.472;9.794;2023-08-17T08:30:08;15.40;99.90
15969;DHT22;8085;53.472;9.794;2023-08-17T08:32:36;15.30;99.90
15969;DHT22;8085;53.472;9.794;2023-08-17T08:35:03;15.30;99.90
15969;DHT22;8085;53.472;9.794;2023-08-17T08:37:30;15.30;99.90
15969;DHT22;8085;53.472;9.794;2023-08-17T08:39:57;15.30;99.90
15969;DHT22;8085;53.472;9.794;2023-08-17T08:42:25;15.30;99.90
15969;DHT22;8085;53.472;9.794;2023-08-17T08:44:52;15.30;99.90
15969;DHT22;8085;53.472;9.794;2023-08-17T08:47:20;15.30;99.90
15969;DHT22;8085;53.472;9.794;2023-08-17T08:49:59;15.40;99.90
15969;DHT22;8085;53.472;9.794;2023-08-17T08:52:33;15.40;99.90
15969;DHT22;8085;53.472;9.794;2023-08-17T08:55:09;15.40;99.90
15969;DHT22;8085;53.472;9.794;2023-08-17T08:57:37;15.50;99.90
15969;DHT22;8085;53.472;9.794;2023-08-17T09:00:06;15.40;99.90
15969;DHT22;8085;53.472;9.794;2023-08-17T09:02:33;15.50;99.90
15969;DHT22;8085;53.472;9.794;2023-08-17T09:05:04;15.40;99.90
15969;DHT22;8085;53.472;9.794;2023-08-17T09:07:33;15.40;99.90
15969;DHT22;8085;53.472;9.794;2023-08-17T09:10:02;15.30;99.90
15969;DHT22;8085;53.472;9.794;2023-08-17T09:12:29;15.30;99.90
15969;DHT22;8085;53.472;9.794;2023-08-17T09:14:57;15.30;99.90
15969;DHT22;8085;53.472;9.794;2023-08-17T09:17:24;15.30;99.90
15969;DHT22;8085;53.472;9.794;2023-08-17T09:19:51;15.10;99.90
15969;DHT22;8085;53.472;9.794;2023-08-17T09:22:23;15.10;99.90
15969;DHT22;8085;53.472;9.794;2023-08-17T09:24:51;15.10;99.90
15969;DHT22;8085;53.472;9.794;2023-08-17T09:27:18;15.20;99.90
15969;DHT22;8085;53.472;9.794;2023-08-17T09:29:44;15.20;99.90
15969;DHT22;8085;53.472;9.794;2023-08-17T09:32:14;15.20;99.90
15969;DHT22;8085;53.472;9.794;2023-08-17T09:34:43;15.20;99.90
15969;DHT22;8085;53.472;9.794;2023-08-17T09:37:12;15.30;99.90
15969;DHT22;8085;53.472;9.794;2023-08-17T09:39:41;15.30;99.90
15969;DHT22;8085;53.472;9.794;2023-08-17T09:42:08;15.30;99.90
15969;DHT22;8085;53.472;9.794;2023-08-17T09:44:37;15.40;99.90
15969;DHT22;8085;53.472;9.794;2023-08-17T09:47:05;15.50;99.90
15969;DHT22;8085;53.472;9.794;2023-08-17T09:49:32;15.50;99.90
15969;DHT22;8085;53.472;9.794;2023-08-17T09:52:00;15.50;99.90
15969;DHT22;8085;53.472;9.794;2023-08-17T09:54:28;15.50;99.90
15969;DHT22;8085;53.472;9.794;2023-08-17T09:56:58;15.50;99.90
15969;DHT22;8085;53.472;9.794;2023-08-17T09:59:26;15.50;99.90
15969;DHT22;8085;53.472;9.794;2023-08-17T10:01:53;15.60;99.90
15969;DHT22;8085;53.472;9.794;2023-08-17T10:04:21;15.60;99.90
15969;DHT22;8085;53.472;9.794;2023-08-17T10:06:51;15.70;99.90
15969;DHT22;8085;53.472;9.794;2023-08-17T10:09:24;15.70;99.90
15969;DHT22;8085;53.472;9.794;2023-08-17T10:11:52;15.80;99.90
15969;DHT22;8085;53.472;9.794;2023-08-17T10:14:27;15.80;99.90
15969;DHT22;8085;53.472;9.794;2023-08-17T10:17:00;15.90;99.90
15969;DHT22;8085;53.472;9.794;2023-08-17T10:19:33;15.90;99.90
15969;DHT22;8085;53.472;9.794;2023-08-17T10:22:10;16.00;99.90
15969;DHT22;8085;53.472;9.794;2023-08-17T10:24:42;16.00;99.90
15969;DHT22;8085;53.472;9.794;2023-08-17T10:27:15;16.00;99.90
15969;DHT22;8085;53.472;9.794;2023-08-17T10:29:45;16.10;99.90
15969;DHT22;8085;53.472;9.794;2023-08-17T10:32:13;16.20;99.90
15969;DHT22;8085;53.472;9.794;2023-08-17T10:34:41;16.20;99.90
15969;DHT22;8085;53.472;9.794;2023-08-17T10:37:09;16.30;99.90
15969;DHT22;8085;53.472;9.794;2023-08-17T10:39:36;16.40;99.90
15969;DHT22;8085;53.472;9.794;2023-08-17T10:42:05;16.40;99.90
15969;DHT22;8085;53.472;9.794;2023-08-17T10:44:44;16.30;99.90
15969;DHT22;8085;53.472;9.794;2023-08-17T10:47:21;16.30;99.90
15969;DHT22;8085;53.472;9.794;2023-08-17T10:49:49;16.10;99.90
15969;DHT22;8085;53.472;9.794;2023-08-17T10:52:25;16.20;99.90
15969;DHT22;8085;53.472;9.794;2023-08-17T10:54:53;16.20;99.90
15969;DHT22;8085;53.472;9.794;2023-08-17T10:57:32;16.10;99.90
15969;DHT22;8085;53.472;9.794;2023-08-17T11:00:14;16.00;99.90
15969;DHT22;8085;53.472;9.794;2023-08-17T11:02:57;15.90;99.90
15969;DHT22;8085;53.472;9.794;2023-08-17T11:05:38;15.80;99.90
15969;DHT22;8085;53.472;9.794;2023-08-17T11:08:06;15.70;99.90
15969;DHT22;8085;53.472;9.794;2023-08-17T11:10:35;15.70;99.90
15969;DHT22;8085;53.472;9.794;2023-08-17T11:13:04;15.60;99.90
15969;DHT22;8085;53.472;9.794;2023-08-17T11:15:40;15.60;99.90
15969;DHT22;8085;53.472;9.794;2023-08-17T11:18:11;15.60;99.90
15969;DHT22;8085;53.472;9.794;2023-08-17T11:20:39;15.50;99.90
15969;DHT22;8085;53.472;9.794;2023-08-17T11:23:07;15.50;99.90
15969;DHT22;8085;53.472;9.794;2023-08-17T11:25:34;15.50;99.90
15969;DHT22;8085;53.472;9.794;2023-08-17T11:28:01;15.60;99.90
15969;DHT22;8085;53.472;9.794;2023-08-17T11:30:30;15.50;99.90
15969;DHT22;8085;53.472;9.794;2023-08-17T11:33:01;15.60;99.90
15969;DHT22;8085;53.472;9.794;2023-08-17T11:35:28;15.60;99.90
15969;DHT22;8085;53.472;9.794;2023-08-17T11:37:55;15.50;99.90
15969;DHT22;8085;53.472;9.794;2023-08-17T11:40:22;15.60;99.90
15969;DHT22;8085;53.472;9.794;2023-08-17T11:42:50;15.50;99.90
15969;DHT22;8085;53.472;9.794;2023-08-17T11:45:18;15.50;99.90
15969;DHT22;8085;53.472;9.794;2023-08-17T11:47:47;15.50;99.90
15969;DHT22;8085;53.472;9.794;2023-08-17T11:50:15;15.50;99.90
15969;DHT22;8085;53.472;9.794;2023-08-17T11:52:42;15.50;99.90
15969;DHT22;8085;53.472;9.794;2023-08-17T11:55:09;15.40;99.90
15969;DHT22;8085;53.472;9.794;2023-08-17T11:57:36;15.40;99.90
15969;DHT22;8085;53.472;9.794;2023-08-17T12:00:06;15.40;99.90
15969;DHT22;8085;53.472;9.794;2023-08-17T12:02:35;15.40;99.90
15969;DHT22;8085;53.472;9.794;2023-08-17T12:05:08;15.30;99.90
15969;DHT22;8085;53.472;9.794;2023-08-17T12:07:36;15.30;99.90
15969;DHT22;8085;53.472;9.794;2023-08-17T12:10:04;15.40;99.90
15969;DHT22;8085;53.472;9.794;2023-08-17T12:12:36;15.40;99.90
15969;DHT22;8085;53.472;9.794;2023-08-17T12:15:03;15.40;99.90
15969;DHT22;8085;53.472;9.794;2023-08-17T12:17:30;15.50;99.90
15969;DHT22;8085;53.472;9.794;2023-08-17T12:19:58;15.60;99.90
15969;DHT22;8085;53.472;9.794;2023-08-17T12:22:26;15.60;99.90
15969;DHT22;8085;53.472;9.794;2023-08-17T12:24:54;15.70;99.90
15969;DHT22;8085;53.472;9.794;2023-08-17T12:27:22;15.70;99.90
15969;DHT22;8085;53.472;9.794;2023-08-17T12:29:51;15.70;99.90
15969;DHT22;8085;53.472;9.794;2023-08-17T12:32:19;15.70;99.90
15969;DHT22;8085;53.472;9.794;2023-08-17T12:34:47;15.60;99.90
15969;DHT22;8085;53.472;9.794;2023-08-17T12:37:19;15.60;99.90
15969;DHT22;8085;53.472;9.794;2023-08-17T12:39:47;15.70;99.90
15969;DHT22;8085;53.472;9.794;2023-08-17T12:42:15;15.60;99.90
15969;DHT22;8085;53.472;9.794;2023-08-17T12:44:43;15.60;99.90
15969;DHT22;8085;53.472;9.794;2023-08-17T12:47:10;15.60;99.90
15969;DHT22;8085;53.472;9.794;2023-08-17T12:49:37;15.50;99.90
15969;DHT22;8085;53.472;9.794;2023-08-17T12:52:04;15.40;99.90
15969;DHT22;8085;53.472;9.794;2023-08-17T12:54:31;15.20;99.90
15969;DHT22;8085;53.472;9.794;2023-08-17T12:56:58;15.10;99.90
15969;DHT22;8085;53.472;9.794;2023-08-17T12:59:26;15.10;99.90
15969;DHT22;8085;53.472;9.794;2023-08-17T13:01:53;15.20;99.90
15969;DHT22;8085;53.472;9.794;2023-08-17T13:04:20;15.20;99.90
15969;DHT22;8085;53.472;9.794;2023-08-17T13:06:47;15.30;99.90
15969;DHT22;8085;53.472;9.794;2023-08-17T13:09:16;15.40;99.90
15969;DHT22;8085;53.472;9.794;2023-08-17T13:11:53;15.40;99.90
15969;DHT22;8085;53.472;9.794;2023-08-17T13:14:30;15.50;99.90
15969;DHT22;8085;53.472;9.794;2023-08-17T13:16:57;15.50;99.90
15969;DHT22;8085;53.472;9.794;2023-08-17T13:19:24;15.60;99.90
15969;DHT22;8085;53.472;9.794;2023-08-17T13:21:51;15.50;99.90
15969;DHT22;8085;53.472;9.794;2023-08-17T13:24:18;15.50;99.90
15969;DHT22;8085;53.472;9.794;2023-08-17T13:26:45;15.30;99.90
15969;DHT22;8085;53.472;9.794;2023-08-17T13:29:12;15.30;99.90
15969;DHT22;8085;53.472;9.794;2023-08-17T13:31:43;15.30;99.90
15969;DHT22;8085;53.472;9.794;2023-08-17T13:34:10;15.20;99.90
15969;DHT22;8085;53.472;9.794;2023-08-17T13:36:37;15.20;99.90
15969;DHT22;8085;53.472;9.794;2023-08-17T13:39:05;15.10;99.90
15969;DHT22;8085;53.472;9.794;2023-08-17T13:41:32;15.00;99.90
15969;DHT22;8085;53.472;9.794;2023-08-17T13:44:02;14.90;99.90
15969;DHT22;8085;53.472;9.794;2023-08-17T13:46:29;14.90;99.90
15969;DHT22;8085;53.472;9.794;2023-08-17T13:48:57;14.90;99.90
15969;DHT22;8085;53.472;9.794;2023-08-17T13:51:24;14.90;99.90
15969;DHT22;8085;53.472;9.794;2023-08-17T13:53:51;15.00;99.90
15969;DHT22;8085;53.472;9.794;2023-08-17T13:56:18;15.00;99.90
15969;DHT22;8085;53.472;9.794;2023-08-17T13:58:45;15.10;99.90
15969;DHT22;8085;53.472;9.794;2023-08-17T14:01:12;15.20;99.90
15969;DHT22;8085;53.472;9.794;2023-08-17T14:03:39;15.30;99.90
15969;DHT22;8085;53.472;9.794;2023-08-17T14:06:09;15.40;99.90
15969;DHT22;8085;53.472;9.794;2023-08-17T14:08:36;15.50;99.90
15969;DHT22;8085;53.472;9.794;2023-08-17T14:11:04;15.50;99.90
15969;DHT22;8085;53.472;9.794;2023-08-17T14:13:32;15.60;99.90
15969;DHT22;8085;53.472;9.794;2023-08-17T14:15:59;15.60;99.90
15969;DHT22;8085;53.472;9.794;2023-08-17T14:18:26;15.60;99.90
15969;DHT22;8085;53.472;9.794;2023-08-17T14:20:54;15.70;99.90
15969;DHT22;8085;53.472;9.794;2023-08-17T14:23:22;15.60;99.90
15969;DHT22;8085;53.472;9.794;2023-08-17T14:25:50;15.60;99.90
15969;DHT22;8085;53.472;9.794;2023-08-17T14:28:18;15.80;99.90
15969;DHT22;8085;53.472;9.794;2023-08-17T14:30:46;15.80;99.90
15969;DHT22;8085;53.472;9.794;2023-08-17T14:33:13;15.90;99.90
15969;DHT22;8085;53.472;9.794;2023-08-17T14:35:41;16.00;99.90
15969;DHT22;8085;53.472;9.794;2023-08-17T14:38:08;16.00;99.90
15969;DHT22;8085;53.472;9.794;2023-08-17T14:40:42;16.00;99.90
15969;DHT22;8085;53.472;9.794;2023-08-17T14:43:10;16.00;99.90
15969;DHT22;8085;53.472;9.794;2023-08-17T14:45:39;15.90;99.90
15969;DHT22;8085;53.472;9.794;2023-08-17T14:48:06;15.90;99.90
15969;DHT22;8085;53.472;9.794;2023-08-17T14:50:33;15.90;99.90
15969;DHT22;8085;53.472;9.794;2023-08-17T14:53:00;15.90;99.90
15969;DHT22;8085;53.472;9.794;2023-08-17T14:55:29;15.80;99.90
15969;DHT22;8085;53.472;9.794;2023-08-17T14:57:57;15.80;99.90
15969;DHT22;8085;53.472;9.794;2023-08-17T15:00:24;15.80;99.90
15969;DHT22;8085;53.472;9.794;2023-08-17T15:02:51;15.80;99.90
15969;DHT22;8085;53.472;9.794;2023-08-17T15:05:18;15.90;99.90
15969;DHT22;8085;53.472;9.794;2023-08-17T15:07:45;15.90;99.90
15969;DHT22;8085;53.472;9.794;2023-08-17T15:10:12;15.90;99.90
15969;DHT22;8085;53.472;9.794;2023-08-17T15:12:39;16.00;99.90
15969;DHT22;8085;53.472;9.794;2023-08-17T15:15:08;16.00;99.90
15969;DHT22;8085;53.472;9.794;2023-08-17T15:17:35;16.00;99.90
15969;DHT22;8085;53.472;9.794;2023-08-17T15:20:03;16.00;99.90
15969;DHT22;8085;53.472;9.794;2023-08-17T15:22:31;16.00;99.90
15969;DHT22;8085;53.472;9.794;2023-08-17T15:24:58;16.00;99.90
15969;DHT22;8085;53.472;9.794;2023-08-17T15:27:25;16.10;99.90
15969;DHT22;8085;53.472;9.794;2023-08-17T15:29:52;16.10;99.90
15969;DHT22;8085;53.472;9.794;2023-08-17T15:32:20;15.90;99.90
15969;DHT22;8085;53.472;9.794;2023-08-17T15:34:47;16.00;99.90
15969;DHT22;8085;53.472;9.794;2023-08-17T15:37:14;15.90;99.90
15969;DHT22;8085;53.472;9.794;2023-08-17T15:39:41;15.90;99.90
15969;DHT22;8085;53.472;9.794;2023-08-17T15:42:08;15.90;99.90
15969;DHT22;8085;53.472;9.794;2023-08-17T15:44:34;15.90;99.90
15969;DHT22;8085;53.472;9.794;2023-08-17T15:47:01;16.00;99.90
15969;DHT22;8085;53.472;9.794;2023-08-17T15:49:30;15.90;99.90
15969;DHT22;8085;53.472;9.794;2023-08-17T15:51:57;15.90;99.90
15969;DHT22;8085;53.472;9.794;2023-08-17T15:54:23;15.90;99.90
15969;DHT22;8085;53.472;9.794;2023-08-17T15:56:50;15.90;99.90
15969;DHT22;8085;53.472;9.794;2023-08-17T15:59:17;15.80;99.90